Time;durP1;ratioP1;P1;durP2;ratioP2;P2;SDS_P1;SDS_P2;PMS_P1;PMS_P2;Temp;Humidity;BMP_temperature;BMP_pressure;BME280_temperature;BME280_humidity;BME280_pressure;Samples;Min_cycle;Max_cycle;Signal;HPM_P1;HPM_P2
2024/01/29 00:10:46;;;;;;;107.72;71.18;;;;;;;22.44;51.28;101401.41;31123114;28;20244;-56
2024/01/29 00:25:49;;;;;;;97.05;62.80;;;;;;;22.40;51.01;101394.72;31127820;28;20679;-58
2024/01/29 00:40:52;;;;;;;89.47;58.10;;;;;;;22.38;51.01;101400.75;31103607;28;21907;-59
2024/01/29 00:55:55;;;;;;;81.25;54.25;;;;;;;22.33;50.65;101395.22;31120559;28;20232;-58
2024/01/29 01:10:58;;;;;;;78.10;51.33;;;;;;;22.32;51.35;101389.91;31141547;28;20312;-54
2024/01/29 01:26:01;;;;;;;70.55;46.58;;;;;;;22.29;50.76;101399.09;31140417;28;20225;-58
2024/01/29 01:41:05;;;;;;;65.68;43.58;;;;;;;22.26;50.63;101413.94;31143141;28;20232;-57
2024/01/29 01:56:08;;;;;;;62.72;41.92;;;;;;;22.24;50.59;101416.25;31142841;28;20308;-53
2024/01/29 02:11:11;;;;;;;57.80;38.10;;;;;;;22.23;50.64;101423.09;31131606;28;20233;-58
2024/01/29 02:26:14;;;;;;;55.33;36.50;;;;;;;22.21;50.65;101431.09;31136116;28;20220;-58
2024/01/29 02:41:17;;;;;;;50.65;33.55;;;;;;;22.19;50.58;101437.13;31135287;28;20232;-57
2024/01/29 02:56:20;;;;;;;45.33;30.67;;;;;;;22.16;50.53;101432.13;31134336;28;20233;-57
2024/01/29 03:11:23;;;;;;;41.55;29.00;;;;;;;22.16;50.81;101417.94;31126404;28;20229;-57
2024/01/29 03:26:26;;;;;;;40.63;27.00;;;;;;;22.58;49.70;101440.94;31132407;28;20645;-59
2024/01/29 03:41:30;;;;;;;37.53;26.77;;;;;;;22.90;48.58;101448.91;31149387;28;20220;-58
2024/01/29 03:56:33;;;;;;;37.95;25.42;;;;;;;23.05;48.56;101453.19;31242483;28;20516;-59
2024/01/29 04:11:36;;;;;;;34.00;23.42;;;;;;;23.07;47.93;101448.84;31161150;28;20348;-58
2024/01/29 04:26:40;;;;;;;30.15;21.70;;;;;;;23.08;47.75;101432.66;31141770;28;20267;-58
2024/01/29 04:41:43;;;;;;;30.20;21.35;;;;;;;23.04;47.98;101432.50;31149277;28;20624;-54
2024/01/29 04:56:46;;;;;;;33.53;23.08;;;;;;;23.01;47.10;101449.38;31164197;28;20225;-58
2024/01/29 05:11:49;;;;;;;73.78;50.03;;;;;;;23.34;45.95;101467.47;31192476;28;20237;-56
2024/01/29 05:26:52;;;;;;;75.13;49.88;;;;;;;23.36;46.48;101465.13;31104296;28;20247;-60
2024/01/29 05:41:55;;;;;;;77.53;49.65;;;;;;;23.39;48.96;101458.72;31119146;28;20232;-59
2024/01/29 05:57:00;;;;;;;70.32;47.72;;;;;;;23.34;49.00;101481.66;31141435;28;20494;-58
2024/01/29 06:12:03;;;;;;;72.15;48.05;;;;;;;23.33;47.96;101484.84;31138815;28;20307;-61
2024/01/29 06:27:07;;;;;;;73.32;46.33;;;;;;;23.22;47.96;101501.44;31138434;28;20225;-61
2024/01/29 06:42:10;;;;;;;64.72;44.42;;;;;;;23.12;48.14;101496.94;31101183;28;20225;-60
2024/01/29 06:57:13;;;;;;;65.53;43.13;;;;;;;23.01;48.04;101494.78;31093571;28;20382;-61
2024/01/29 07:12:16;;;;;;;61.58;42.20;;;;;;;22.93;47.84;101516.38;31091879;28;20233;-57
2024/01/29 07:27:19;;;;;;;55.90;39.38;;;;;;;22.80;48.23;101512.53;31098140;28;20323;-61
2024/01/29 07:42:23;;;;;;;54.58;37.42;;;;;;;22.72;48.17;101516.19;31102504;28;20714;-60
2024/01/29 07:57:26;;;;;;;53.05;35.08;;;;;;;22.64;48.38;101538.91;31100725;28;20521;-53
2024/01/29 08:12:29;;;;;;;50.00;33.53;;;;;;;22.58;48.46;101557.28;31105440;28;20315;-59
2024/01/29 08:27:32;;;;;;;48.75;32.38;;;;;;;22.51;48.79;101554.91;31097717;28;20548;-61
2024/01/29 08:42:36;;;;;;;43.58;29.80;;;;;;;22.46;48.56;101541.72;31093614;28;20233;-57
2024/01/29 08:57:39;;;;;;;41.03;27.73;;;;;;;22.44;48.93;101546.09;31094948;28;20254;-61
2024/01/29 09:12:43;;;;;;;33.80;23.73;;;;;;;22.42;48.77;101534.22;31111852;28;20235;-60
2024/01/29 09:27:46;;;;;;;33.60;23.00;;;;;;;22.35;49.09;101565.06;31115107;28;20319;-62
2024/01/29 09:42:50;;;;;;;28.52;20.13;;;;;;;22.29;49.39;101570.09;31132903;28;20225;-59
2024/01/29 09:57:53;;;;;;;28.58;19.67;;;;;;;22.30;48.96;101563.25;31135574;28;20224;-60
2024/01/29 10:13:05;;;;;;;23.52;16.33;;;;;;;22.29;49.26;101591.94;31130708;28;20260;-60
2024/01/29 10:28:10;;;;;;;21.85;15.52;;;;;;;22.27;48.92;101595.09;31130640;28;20236;-59
2024/01/29 10:43:18;;;;;;;20.48;14.95;;;;;;;22.27;49.03;101582.91;31126446;28;20232;-60
2024/01/29 10:58:21;;;;;;;19.85;12.73;;;;;;;22.25;49.01;101580.41;31114398;28;20521;-59
2024/01/29 11:13:25;;;;;;;18.35;13.13;;;;;;;22.26;49.05;101575.56;31122657;28;20544;-59
2024/01/29 11:28:28;;;;;;;17.90;12.35;;;;;;;22.26;49.24;101579.25;31107248;28;20532;-57
2024/01/29 11:43:31;;;;;;;14.43;10.75;;;;;;;22.29;49.30;101580.59;31112697;28;20251;-63
2024/01/29 11:58:35;;;;;;;14.38;9.98;;;;;;;22.31;48.96;101589.59;31110165;28;20225;-61
2024/01/29 12:13:38;;;;;;;12.40;9.10;;;;;;;22.33;48.86;101587.28;31123762;28;20232;-59
2024/01/29 12:28:41;;;;;;;11.70;8.60;;;;;;;22.35;49.08;101587.75;31108654;28;20651;-62
2024/01/29 12:43:44;;;;;;;12.07;8.52;;;;;;;22.39;49.05;101583.09;31113906;28;20235;-60
2024/01/29 12:58:47;;;;;;;11.13;8.32;;;;;;;22.45;48.48;101574.13;31135945;28;20224;-59
2024/01/29 13:13:50;;;;;;;10.63;7.47;;;;;;;22.51;48.58;101571.94;31135509;28;20613;-60
2024/01/29 13:28:53;;;;;;;9.70;6.78;;;;;;;22.41;48.72;101575.94;31140525;28;20243;-62
2024/01/29 13:43:56;;;;;;;8.68;6.47;;;;;;;22.34;49.14;101577.59;31130434;28;20532;-57
2024/01/29 13:58:59;;;;;;;9.02;7.35;;;;;;;22.28;49.04;101578.91;31124337;28;20233;-59
2024/01/29 14:14:02;;;;;;;8.38;6.10;;;;;;;22.24;49.54;101577.91;31127479;28;20228;-61
2024/01/29 14:29:05;;;;;;;8.10;6.07;;;;;;;22.50;49.05;101566.59;31119676;28;20284;-63
2024/01/29 14:44:08;;;;;;;7.18;5.63;;;;;;;23.01;47.32;101558.09;31123723;28;20316;-60
2024/01/29 14:59:11;;;;;;;7.53;5.90;;;;;;;23.20;47.16;101556.91;31114134;28;20243;-59
2024/01/29 15:14:14;;;;;;;8.52;5.72;;;;;;;23.16;46.60;101562.41;31120271;28;20225;-61
2024/01/29 15:29:17;;;;;;;10.57;5.43;;;;;;;23.17;46.76;101573.44;31105188;28;20237;-60
2024/01/29 15:44:20;;;;;;;9.38;7.40;;;;;;;22.79;46.54;101569.66;31112040;28;20221;-59
2024/01/29 15:59:23;;;;;;;17.08;9.93;;;;;;;22.61;44.64;101573.59;31087503;28;20637;-60
2024/01/29 16:14:26;;;;;;;10.48;7.20;;;;;;;22.90;42.69;101568.13;31062938;28;20592;-59
2024/01/29 16:29:29;;;;;;;10.20;6.82;;;;;;;23.16;44.28;101570.94;31123337;28;20363;-64
2024/01/29 16:44:33;;;;;;;9.18;5.78;;;;;;;22.98;45.11;101580.66;31111782;28;20502;-60
2024/01/29 16:59:38;;;;;;;88.03;51.58;;;;;;;23.06;45.56;101577.81;31125127;28;20224;-60
2024/01/29 17:14:42;;;;;;;70.63;44.85;;;;;;;23.14;45.83;101595.97;31085935;28;20220;-61
2024/01/29 17:29:45;;;;;;;50.42;29.33;;;;;;;23.17;45.85;101612.34;31107391;28;20248;-61
2024/01/29 17:44:48;;;;;;;149.50;79.30;;;;;;;23.18;46.95;101608.34;31136008;28;20784;-62
2024/01/29 17:59:51;;;;;;;103.40;55.90;;;;;;;23.13;47.37;101611.34;31183405;28;20224;-60
2024/01/29 18:14:55;;;;;;;167.52;97.03;;;;;;;23.05;47.27;101609.38;31182701;28;20234;-61
2024/01/29 18:29:58;;;;;;;124.18;71.15;;;;;;;23.03;47.41;101615.38;31222880;28;20240;-59
2024/01/29 18:45:01;;;;;;;201.40;120.10;;;;;;;23.02;48.26;101621.38;31205827;28;20227;-60
2024/01/29 19:00:06;;;;;;;185.30;112.97;;;;;;;22.95;48.18;101630.44;31118565;28;20532;-51
2024/01/29 19:21:36;;;;;;;181.40;108.97;;;;;;;22.85;50.17;101642.09;31574067;27;20587;-53
2024/01/29 19:36:42;;;;;;;246.98;150.88;;;;;;;22.84;50.54;101656.63;31587147;28;20229;-55
2024/01/29 19:51:45;;;;;;;198.73;123.25;;;;;;;22.80;50.24;101637.44;31501831;28;20295;-54
2024/01/29 20:06:48;;;;;;;251.68;164.13;;;;;;;22.71;50.32;101645.09;31408948;28;20453;-57
2024/01/29 20:21:51;;;;;;;220.60;138.77;;;;;;;22.61;51.15;101644.53;31134668;28;20209;-55
2024/01/29 20:36:54;;;;;;;188.63;121.70;;;;;;;22.56;51.21;101631.38;31103566;28;20220;-54
2024/01/29 20:51:58;;;;;;;265.70;173.07;;;;;;;22.54;51.71;101636.53;31061077;28;20237;-51
2024/01/29 21:07:02;;;;;;;245.95;158.77;;;;;;;22.48;51.32;101629.34;31085595;28;20269;-51
2024/01/29 21:22:06;;;;;;;284.90;189.93;;;;;;;22.43;51.49;101624.66;31085326;28;20197;-52
2024/01/29 21:37:09;;;;;;;241.40;159.27;;;;;;;22.38;51.92;101629.66;31111175;28;20235;-51
2024/01/29 21:52:13;;;;;;;200.40;135.32;;;;;;;22.32;51.85;101609.13;31133479;28;20213;-50
2024/01/29 22:07:16;;;;;;;175.52;115.88;;;;;;;22.31;52.25;101617.97;31118427;28;20279;-54
2024/01/29 22:22:19;;;;;;;156.20;101.60;;;;;;;22.27;51.60;101622.63;31131441;28;20201;-51
2024/01/29 22:37:22;;;;;;;134.32;88.53;;;;;;;22.23;51.92;101621.59;31118521;28;20229;-52
2024/01/29 22:52:25;;;;;;;115.88;77.15;;;;;;;22.19;52.10;101621.44;31110499;28;20224;-50
2024/01/29 23:07:28;;;;;;;102.25;68.15;;;;;;;22.13;52.15;101634.09;31131221;28;20231;-54
2024/01/29 23:22:31;;;;;;;93.15;62.53;;;;;;;22.10;52.03;101646.06;31097355;28;20205;-51
2024/01/29 23:37:34;;;;;;;80.13;53.67;;;;;;;22.06;52.19;101643.09;31123450;28;20229;-51
2024/01/29 23:52:37;;;;;;;72.65;47.38;;;;;;;22.02;52.29;101642.06;31119539;28;20736;-50
